sensor_id;sensor_type;location;lat;lon;timestamp;P1;durP1;ratioP1;P2;durP2;ratioP2
69894;SDS011;57172;52.034;5.090;2023-09-12T00:01:29;45.42;;;22.60;;
69894;SDS011;57172;52.034;5.090;2023-09-12T00:03:59;45.08;;;22.35;;
69894;SDS011;57172;52.034;5.090;2023-09-12T00:06:26;42.50;;;21.77;;
69894;SDS011;57172;52.034;5.090;2023-09-12T00:08:53;47.23;;;22.63;;
69894;SDS011;57172;52.034;5.090;2023-09-12T00:11:20;46.53;;;21.88;;
69894;SDS011;57172;52.034;5.090;2023-09-12T00:13:47;45.40;;;22.83;;
69894;SDS011;57172;52.034;5.090;2023-09-12T00:16:14;48.13;;;22.70;;
69894;SDS011;57172;52.034;5.090;2023-09-12T00:18:41;48.90;;;23.23;;
69894;SDS011;57172;52.034;5.090;2023-09-12T00:21:09;45.73;;;22.27;;
69894;SDS011;57172;52.034;5.090;2023-09-12T00:23:36;45.45;;;23.45;;
69894;SDS011;57172;52.034;5.090;2023-09-12T00:26:03;45.25;;;21.90;;
69894;SDS011;57172;52.034;5.090;2023-09-12T00:28:30;45.72;;;21.95;;
69894;SDS011;57172;52.034;5.090;2023-09-12T00:30:57;44.80;;;21.35;;
69894;SDS011;57172;52.034;5.090;2023-09-12T00:33:24;49.23;;;22.10;;
69894;SDS011;57172;52.034;5.090;2023-09-12T00:35:51;44.83;;;22.30;;
69894;SDS011;57172;52.034;5.090;2023-09-12T00:38:18;47.35;;;22.42;;
69894;SDS011;57172;52.034;5.090;2023-09-12T00:40:45;46.95;;;22.40;;
69894;SDS011;57172;52.034;5.090;2023-09-12T00:43:12;46.55;;;22.30;;
69894;SDS011;57172;52.034;5.090;2023-09-12T00:45:39;42.53;;;21.43;;
69894;SDS011;57172;52.034;5.090;2023-09-12T00:48:08;42.83;;;22.05;;
69894;SDS011;57172;52.034;5.090;2023-09-12T00:50:37;43.67;;;21.73;;
69894;SDS011;57172;52.034;5.090;2023-09-12T00:53:05;47.25;;;22.30;;
69894;SDS011;57172;52.034;5.090;2023-09-12T00:55:32;45.33;;;22.50;;
69894;SDS011;57172;52.034;5.090;2023-09-12T00:58:01;44.73;;;21.83;;
69894;SDS011;57172;52.034;5.090;2023-09-12T01:00:29;43.53;;;21.67;;
69894;SDS011;57172;52.034;5.090;2023-09-12T01:02:56;44.25;;;21.38;;
69894;SDS011;57172;52.034;5.090;2023-09-12T01:05:24;44.92;;;20.98;;
69894;SDS011;57172;52.034;5.090;2023-09-12T01:07:54;43.88;;;22.70;;
69894;SDS011;57172;52.034;5.090;2023-09-12T01:10:21;44.57;;;23.03;;
69894;SDS011;57172;52.034;5.090;2023-09-12T01:12:48;46.58;;;22.40;;
69894;SDS011;57172;52.034;5.090;2023-09-12T01:15:16;52.22;;;24.20;;
69894;SDS011;57172;52.034;5.090;2023-09-12T01:17:44;51.70;;;23.05;;
69894;SDS011;57172;52.034;5.090;2023-09-12T01:20:14;50.10;;;23.75;;
69894;SDS011;57172;52.034;5.090;2023-09-12T01:22:56;56.30;;;24.93;;
69894;SDS011;57172;52.034;5.090;2023-09-12T01:28:12;56.17;;;25.15;;
69894;SDS011;57172;52.034;5.090;2023-09-12T01:30:44;53.60;;;24.27;;
69894;SDS011;57172;52.034;5.090;2023-09-12T01:33:15;56.72;;;25.40;;
69894;SDS011;57172;52.034;5.090;2023-09-12T01:35:42;52.53;;;23.90;;
69894;SDS011;57172;52.034;5.090;2023-09-12T01:38:10;53.78;;;25.65;;
69894;SDS011;57172;52.034;5.090;2023-09-12T01:40:48;53.15;;;23.75;;
69894;SDS011;57172;52.034;5.090;2023-09-12T01:43:18;58.53;;;25.23;;
69894;SDS011;57172;52.034;5.090;2023-09-12T01:45:48;51.22;;;23.77;;
69894;SDS011;57172;52.034;5.090;2023-09-12T01:48:19;48.33;;;22.10;;
69894;SDS011;57172;52.034;5.090;2023-09-12T01:50:49;49.05;;;22.77;;
69894;SDS011;57172;52.034;5.090;2023-09-12T01:53:17;47.72;;;22.55;;
69894;SDS011;57172;52.034;5.090;2023-09-12T01:55:45;46.78;;;22.25;;
69894;SDS011;57172;52.034;5.090;2023-09-12T01:58:13;46.03;;;22.45;;
69894;SDS011;57172;52.034;5.090;2023-09-12T02:00:41;46.63;;;21.90;;
69894;SDS011;57172;52.034;5.090;2023-09-12T02:03:08;47.10;;;22.02;;
69894;SDS011;57172;52.034;5.090;2023-09-12T02:05:35;48.92;;;23.42;;
69894;SDS011;57172;52.034;5.090;2023-09-12T02:08:04;47.33;;;22.60;;
69894;SDS011;57172;52.034;5.090;2023-09-12T02:10:31;56.58;;;25.48;;
69894;SDS011;57172;52.034;5.090;2023-09-12T02:12:58;61.27;;;28.03;;
69894;SDS011;57172;52.034;5.090;2023-09-12T02:15:25;64.32;;;28.20;;
69894;SDS011;57172;52.034;5.090;2023-09-12T02:17:52;64.85;;;28.25;;
69894;SDS011;57172;52.034;5.090;2023-09-12T02:20:19;63.63;;;28.60;;
69894;SDS011;57172;52.034;5.090;2023-09-12T02:22:47;62.80;;;27.80;;
69894;SDS011;57172;52.034;5.090;2023-09-12T02:25:14;64.43;;;28.20;;
69894;SDS011;57172;52.034;5.090;2023-09-12T02:27:41;65.55;;;28.42;;
69894;SDS011;57172;52.034;5.090;2023-09-12T02:30:08;59.28;;;26.77;;
69894;SDS011;57172;52.034;5.090;2023-09-12T02:32:35;57.08;;;26.45;;
69894;SDS011;57172;52.034;5.090;2023-09-12T02:35:02;55.60;;;25.70;;
69894;SDS011;57172;52.034;5.090;2023-09-12T02:37:30;54.33;;;24.57;;
69894;SDS011;57172;52.034;5.090;2023-09-12T02:39:57;61.08;;;26.98;;
69894;SDS011;57172;52.034;5.090;2023-09-12T02:42:24;55.70;;;25.95;;
69894;SDS011;57172;52.034;5.090;2023-09-12T02:44:51;54.45;;;25.63;;
69894;SDS011;57172;52.034;5.090;2023-09-12T02:47:19;53.33;;;24.70;;
69894;SDS011;57172;52.034;5.090;2023-09-12T02:49:46;59.30;;;25.37;;
69894;SDS011;57172;52.034;5.090;2023-09-12T02:52:13;50.40;;;24.67;;
69894;SDS011;57172;52.034;5.090;2023-09-12T02:54:39;59.30;;;27.88;;
69894;SDS011;57172;52.034;5.090;2023-09-12T02:57:07;59.72;;;26.90;;
69894;SDS011;57172;52.034;5.090;2023-09-12T02:59:33;68.30;;;27.70;;
69894;SDS011;57172;52.034;5.090;2023-09-12T03:02:01;62.20;;;27.33;;
69894;SDS011;57172;52.034;5.090;2023-09-12T03:04:33;66.15;;;28.48;;
69894;SDS011;57172;52.034;5.090;2023-09-12T03:07:01;64.72;;;28.90;;
69894;SDS011;57172;52.034;5.090;2023-09-12T03:09:28;63.20;;;27.48;;
69894;SDS011;57172;52.034;5.090;2023-09-12T03:11:55;67.78;;;29.30;;
69894;SDS011;57172;52.034;5.090;2023-09-12T03:14:22;66.43;;;28.60;;
69894;SDS011;57172;52.034;5.090;2023-09-12T03:16:49;68.57;;;29.23;;
69894;SDS011;57172;52.034;5.090;2023-09-12T03:19:16;64.68;;;29.02;;
69894;SDS011;57172;52.034;5.090;2023-09-12T03:21:43;66.32;;;27.83;;
69894;SDS011;57172;52.034;5.090;2023-09-12T03:24:10;65.10;;;28.63;;
69894;SDS011;57172;52.034;5.090;2023-09-12T03:26:37;69.50;;;29.10;;
69894;SDS011;57172;52.034;5.090;2023-09-12T03:29:04;62.90;;;28.33;;
69894;SDS011;57172;52.034;5.090;2023-09-12T03:31:31;61.90;;;28.60;;
69894;SDS011;57172;52.034;5.090;2023-09-12T03:33:58;67.35;;;28.52;;
69894;SDS011;57172;52.034;5.090;2023-09-12T03:36:26;63.53;;;27.88;;
69894;SDS011;57172;52.034;5.090;2023-09-12T03:38:53;67.20;;;28.43;;
69894;SDS011;57172;52.034;5.090;2023-09-12T03:41:20;56.60;;;26.70;;
69894;SDS011;57172;52.034;5.090;2023-09-12T03:43:53;64.10;;;27.85;;
69894;SDS011;57172;52.034;5.090;2023-09-12T03:46:21;61.60;;;26.65;;
69894;SDS011;57172;52.034;5.090;2023-09-12T03:48:48;62.95;;;27.13;;
69894;SDS011;57172;52.034;5.090;2023-09-12T03:51:16;60.90;;;26.03;;
69894;SDS011;57172;52.034;5.090;2023-09-12T03:53:43;59.85;;;26.17;;
69894;SDS011;57172;52.034;5.090;2023-09-12T03:56:10;56.47;;;25.77;;
69894;SDS011;57172;52.034;5.090;2023-09-12T03:58:39;56.25;;;25.08;;
69894;SDS011;57172;52.034;5.090;2023-09-12T04:01:07;56.03;;;25.65;;
69894;SDS011;57172;52.034;5.090;2023-09-12T04:03:34;56.23;;;24.37;;
69894;SDS011;57172;52.034;5.090;2023-09-12T04:06:01;56.00;;;24.80;;
69894;SDS011;57172;52.034;5.090;2023-09-12T04:08:28;58.10;;;24.92;;
69894;SDS011;57172;52.034;5.090;2023-09-12T04:10:55;57.28;;;24.10;;
69894;SDS011;57172;52.034;5.090;2023-09-12T04:13:22;58.70;;;24.80;;
69894;SDS011;57172;52.034;5.090;2023-09-12T04:15:49;54.37;;;24.07;;
69894;SDS011;57172;52.034;5.090;2023-09-12T04:18:16;53.15;;;23.58;;
69894;SDS011;57172;52.034;5.090;2023-09-12T04:20:43;52.63;;;23.17;;
69894;SDS011;57172;52.034;5.090;2023-09-12T04:23:10;47.75;;;22.35;;
69894;SDS011;57172;52.034;5.090;2023-09-12T04:25:37;49.15;;;22.90;;
69894;SDS011;57172;52.034;5.090;2023-09-12T04:28:07;46.37;;;22.47;;
69894;SDS011;57172;52.034;5.090;2023-09-12T04:30:35;53.28;;;23.48;;
69894;SDS011;57172;52.034;5.090;2023-09-12T04:33:02;51.85;;;21.83;;
69894;SDS011;57172;52.034;5.090;2023-09-12T04:35:32;46.92;;;21.63;;
69894;SDS011;57172;52.034;5.090;2023-09-12T04:37:59;49.22;;;21.52;;
69894;SDS011;57172;52.034;5.090;2023-09-12T04:40:27;48.97;;;21.80;;
69894;SDS011;57172;52.034;5.090;2023-09-12T04:42:53;53.33;;;23.05;;
69894;SDS011;57172;52.034;5.090;2023-09-12T04:45:20;51.95;;;22.15;;
69894;SDS011;57172;52.034;5.090;2023-09-12T04:47:47;52.42;;;22.30;;
69894;SDS011;57172;52.034;5.090;2023-09-12T04:50:14;53.47;;;23.05;;
69894;SDS011;57172;52.034;5.090;2023-09-12T04:52:41;52.27;;;22.03;;
69894;SDS011;57172;52.034;5.090;2023-09-12T04:55:08;54.05;;;21.85;;
69894;SDS011;57172;52.034;5.090;2023-09-12T04:57:35;55.25;;;22.75;;
69894;SDS011;57172;52.034;5.090;2023-09-12T05:00:05;52.40;;;22.20;;
69894;SDS011;57172;52.034;5.090;2023-09-12T05:02:33;55.47;;;21.83;;
69894;SDS011;57172;52.034;5.090;2023-09-12T05:05:00;51.10;;;21.90;;
69894;SDS011;57172;52.034;5.090;2023-09-12T05:07:27;55.50;;;22.77;;
69894;SDS011;57172;52.034;5.090;2023-09-12T05:09:54;49.45;;;20.08;;
69894;SDS011;57172;52.034;5.090;2023-09-12T05:12:21;57.78;;;22.17;;
69894;SDS011;57172;52.034;5.090;2023-09-12T05:14:48;52.47;;;22.05;;
69894;SDS011;57172;52.034;5.090;2023-09-12T05:17:15;55.47;;;22.97;;
69894;SDS011;57172;52.034;5.090;2023-09-12T05:19:41;52.30;;;22.13;;
69894;SDS011;57172;52.034;5.090;2023-09-12T05:22:09;54.90;;;22.45;;
69894;SDS011;57172;52.034;5.090;2023-09-12T05:24:36;47.03;;;20.05;;
69894;SDS011;57172;52.034;5.090;2023-09-12T05:27:03;47.30;;;19.80;;
69894;SDS011;57172;52.034;5.090;2023-09-12T05:29:32;46.70;;;20.97;;
69894;SDS011;57172;52.034;5.090;2023-09-12T05:31:59;48.00;;;20.70;;
69894;SDS011;57172;52.034;5.090;2023-09-12T05:34:26;45.50;;;20.88;;
69894;SDS011;57172;52.034;5.090;2023-09-12T05:36:53;47.20;;;20.15;;
69894;SDS011;57172;52.034;5.090;2023-09-12T05:39:20;43.22;;;19.23;;
69894;SDS011;57172;52.034;5.090;2023-09-12T05:41:47;40.50;;;19.50;;
69894;SDS011;57172;52.034;5.090;2023-09-12T05:44:14;41.83;;;18.48;;
69894;SDS011;57172;52.034;5.090;2023-09-12T05:46:46;39.92;;;19.05;;
69894;SDS011;57172;52.034;5.090;2023-09-12T05:49:14;38.15;;;18.10;;
69894;SDS011;57172;52.034;5.090;2023-09-12T05:51:41;34.58;;;16.65;;
69894;SDS011;57172;52.034;5.090;2023-09-12T05:54:09;37.10;;;17.40;;
69894;SDS011;57172;52.034;5.090;2023-09-12T05:56:38;35.70;;;17.73;;
69894;SDS011;57172;52.034;5.090;2023-09-12T05:59:05;41.90;;;18.27;;
69894;SDS011;57172;52.034;5.090;2023-09-12T06:01:33;37.42;;;18.25;;
69894;SDS011;57172;52.034;5.090;2023-09-12T06:04:00;39.75;;;18.48;;
69894;SDS011;57172;52.034;5.090;2023-09-12T06:06:27;38.60;;;18.70;;
69894;SDS011;57172;52.034;5.090;2023-09-12T06:08:54;37.55;;;17.75;;
69894;SDS011;57172;52.034;5.090;2023-09-12T06:11:22;43.38;;;18.95;;
69894;SDS011;57172;52.034;5.090;2023-09-12T06:13:49;37.38;;;18.05;;
69894;SDS011;57172;52.034;5.090;2023-09-12T06:16:16;39.47;;;18.50;;
69894;SDS011;57172;52.034;5.090;2023-09-12T06:18:43;40.03;;;17.87;;
69894;SDS011;57172;52.034;5.090;2023-09-12T06:21:10;40.53;;;18.58;;
69894;SDS011;57172;52.034;5.090;2023-09-12T06:23:37;38.55;;;17.60;;
69894;SDS011;57172;52.034;5.090;2023-09-12T06:26:04;39.63;;;17.30;;
69894;SDS011;57172;52.034;5.090;2023-09-12T06:28:31;37.38;;;17.98;;
69894;SDS011;57172;52.034;5.090;2023-09-12T06:30:58;35.50;;;16.57;;
69894;SDS011;57172;52.034;5.090;2023-09-12T06:33:26;38.38;;;17.00;;
69894;SDS011;57172;52.034;5.090;2023-09-12T06:35:53;39.03;;;17.70;;
69894;SDS011;57172;52.034;5.090;2023-09-12T06:38:21;39.78;;;17.63;;
69894;SDS011;57172;52.034;5.090;2023-09-12T06:40:48;37.50;;;17.70;;
69894;SDS011;57172;52.034;5.090;2023-09-12T06:43:16;36.77;;;17.07;;
69894;SDS011;57172;52.034;5.090;2023-09-12T06:45:43;36.38;;;17.30;;
69894;SDS011;57172;52.034;5.090;2023-09-12T06:48:10;39.50;;;17.98;;
69894;SDS011;57172;52.034;5.090;2023-09-12T06:50:37;40.05;;;18.40;;
69894;SDS011;57172;52.034;5.090;2023-09-12T06:53:05;40.30;;;18.35;;
69894;SDS011;57172;52.034;5.090;2023-09-12T06:55:36;40.07;;;17.97;;
69894;SDS011;57172;52.034;5.090;2023-09-12T06:58:04;38.75;;;17.75;;
69894;SDS011;57172;52.034;5.090;2023-09-12T07:00:31;41.85;;;18.70;;
69894;SDS011;57172;52.034;5.090;2023-09-12T07:02:58;47.03;;;19.02;;
69894;SDS011;57172;52.034;5.090;2023-09-12T07:05:25;47.47;;;18.95;;
69894;SDS011;57172;52.034;5.090;2023-09-12T07:07:52;44.80;;;19.33;;
69894;SDS011;57172;52.034;5.090;2023-09-12T07:10:19;47.85;;;19.80;;
69894;SDS011;57172;52.034;5.090;2023-09-12T07:12:51;44.33;;;19.17;;
69894;SDS011;57172;52.034;5.090;2023-09-12T07:15:20;47.15;;;19.35;;
69894;SDS011;57172;52.034;5.090;2023-09-12T07:17:47;48.35;;;19.98;;
69894;SDS011;57172;52.034;5.090;2023-09-12T07:20:14;47.53;;;19.87;;
69894;SDS011;57172;52.034;5.090;2023-09-12T07:22:42;49.75;;;19.70;;
69894;SDS011;57172;52.034;5.090;2023-09-12T07:25:09;46.28;;;19.50;;
69894;SDS011;57172;52.034;5.090;2023-09-12T07:27:38;50.20;;;19.83;;
69894;SDS011;57172;52.034;5.090;2023-09-12T07:30:06;46.38;;;19.67;;
69894;SDS011;57172;52.034;5.090;2023-09-12T07:32:34;48.80;;;19.20;;
69894;SDS011;57172;52.034;5.090;2023-09-12T07:35:01;48.15;;;18.90;;
69894;SDS011;57172;52.034;5.090;2023-09-12T07:37:28;49.95;;;19.88;;
69894;SDS011;57172;52.034;5.090;2023-09-12T07:39:55;48.85;;;20.85;;
69894;SDS011;57172;52.034;5.090;2023-09-12T07:42:22;45.13;;;19.88;;
69894;SDS011;57172;52.034;5.090;2023-09-12T07:44:50;48.83;;;20.43;;
69894;SDS011;57172;52.034;5.090;2023-09-12T07:47:18;46.70;;;19.58;;
69894;SDS011;57172;52.034;5.090;2023-09-12T07:49:45;45.67;;;19.05;;
69894;SDS011;57172;52.034;5.090;2023-09-12T07:52:18;48.20;;;19.38;;
69894;SDS011;57172;52.034;5.090;2023-09-12T07:54:45;47.25;;;19.95;;
69894;SDS011;57172;52.034;5.090;2023-09-12T07:57:13;42.53;;;18.47;;
69894;SDS011;57172;52.034;5.090;2023-09-12T07:59:40;42.72;;;19.20;;
69894;SDS011;57172;52.034;5.090;2023-09-12T08:02:06;44.63;;;19.52;;
69894;SDS011;57172;52.034;5.090;2023-09-12T08:04:34;46.70;;;19.40;;
69894;SDS011;57172;52.034;5.090;2023-09-12T08:07:01;44.05;;;18.30;;
69894;SDS011;57172;52.034;5.090;2023-09-12T08:09:47;48.07;;;18.83;;
69894;SDS011;57172;52.034;5.090;2023-09-12T08:12:16;46.95;;;18.50;;
69894;SDS011;57172;52.034;5.090;2023-09-12T08:14:44;46.65;;;19.38;;
69894;SDS011;57172;52.034;5.090;2023-09-12T08:17:12;48.08;;;20.10;;
69894;SDS011;57172;52.034;5.090;2023-09-12T08:19:39;45.45;;;20.17;;
69894;SDS011;57172;52.034;5.090;2023-09-12T08:22:06;46.97;;;19.97;;
69894;SDS011;57172;52.034;5.090;2023-09-12T08:24:34;45.50;;;20.13;;
69894;SDS011;57172;52.034;5.090;2023-09-12T08:27:02;48.25;;;20.17;;
69894;SDS011;57172;52.034;5.090;2023-09-12T08:29:31;48.00;;;20.05;;
69894;SDS011;57172;52.034;5.090;2023-09-12T08:31:59;48.45;;;21.98;;
69894;SDS011;57172;52.034;5.090;2023-09-12T08:34:27;47.80;;;21.37;;
69894;SDS011;57172;52.034;5.090;2023-09-12T08:36:54;46.42;;;20.95;;
69894;SDS011;57172;52.034;5.090;2023-09-12T08:39:25;49.13;;;22.02;;
69894;SDS011;57172;52.034;5.090;2023-09-12T08:41:54;47.35;;;21.80;;
69894;SDS011;57172;52.034;5.090;2023-09-12T08:44:21;48.80;;;22.52;;
69894;SDS011;57172;52.034;5.090;2023-09-12T08:46:48;47.50;;;21.73;;
69894;SDS011;57172;52.034;5.090;2023-09-12T08:49:16;47.88;;;22.63;;
69894;SDS011;57172;52.034;5.090;2023-09-12T08:51:43;52.75;;;23.40;;
69894;SDS011;57172;52.034;5.090;2023-09-12T08:54:11;48.53;;;22.35;;
69894;SDS011;57172;52.034;5.090;2023-09-12T08:56:39;46.67;;;22.70;;
69894;SDS011;57172;52.034;5.090;2023-09-12T08:59:09;49.03;;;22.70;;
69894;SDS011;57172;52.034;5.090;2023-09-12T09:01:37;47.95;;;22.52;;
69894;SDS011;57172;52.034;5.090;2023-09-12T09:04:06;45.85;;;21.67;;
69894;SDS011;57172;52.034;5.090;2023-09-12T09:06:33;47.47;;;22.48;;
69894;SDS011;57172;52.034;5.090;2023-09-12T09:09:04;44.58;;;20.70;;
69894;SDS011;57172;52.034;5.090;2023-09-12T09:11:32;45.17;;;22.00;;
69894;SDS011;57172;52.034;5.090;2023-09-12T09:14:04;48.03;;;22.02;;
69894;SDS011;57172;52.034;5.090;2023-09-12T09:16:31;45.40;;;21.52;;
69894;SDS011;57172;52.034;5.090;2023-09-12T09:21:30;45.55;;;22.25;;
69894;SDS011;57172;52.034;5.090;2023-09-12T09:24:04;41.47;;;20.33;;
69894;SDS011;57172;52.034;5.090;2023-09-12T09:29:15;43.38;;;21.17;;
69894;SDS011;57172;52.034;5.090;2023-09-12T09:31:43;47.03;;;22.10;;
69894;SDS011;57172;52.034;5.090;2023-09-12T09:34:15;45.47;;;22.55;;
69894;SDS011;57172;52.034;5.090;2023-09-12T09:36:47;43.33;;;20.87;;
69894;SDS011;57172;52.034;5.090;2023-09-12T09:39:16;45.70;;;21.65;;
69894;SDS011;57172;52.034;5.090;2023-09-12T09:41:48;47.10;;;22.63;;
69894;SDS011;57172;52.034;5.090;2023-09-12T09:44:16;41.83;;;21.23;;
69894;SDS011;57172;52.034;5.090;2023-09-12T09:46:44;41.53;;;20.30;;
69894;SDS011;57172;52.034;5.090;2023-09-12T09:49:15;43.97;;;21.07;;
69894;SDS011;57172;52.034;5.090;2023-09-12T09:51:44;42.08;;;20.73;;
69894;SDS011;57172;52.034;5.090;2023-09-12T09:54:11;42.60;;;21.33;;
69894;SDS011;57172;52.034;5.090;2023-09-12T09:56:46;41.58;;;20.48;;
69894;SDS011;57172;52.034;5.090;2023-09-12T09:59:14;36.92;;;19.00;;
69894;SDS011;57172;52.034;5.090;2023-09-12T10:01:45;34.43;;;18.70;;
69894;SDS011;57172;52.034;5.090;2023-09-12T10:04:14;35.45;;;18.73;;
69894;SDS011;57172;52.034;5.090;2023-09-12T10:06:45;37.65;;;17.80;;
69894;SDS011;57172;52.034;5.090;2023-09-12T10:09:13;36.95;;;19.10;;
69894;SDS011;57172;52.034;5.090;2023-09-12T10:11:41;34.55;;;18.23;;
69894;SDS011;57172;52.034;5.090;2023-09-12T10:14:09;32.23;;;18.17;;
69894;SDS011;57172;52.034;5.090;2023-09-12T10:16:40;31.85;;;17.83;;
69894;SDS011;57172;52.034;5.090;2023-09-12T10:19:13;34.72;;;19.25;;
69894;SDS011;57172;52.034;5.090;2023-09-12T10:24:48;33.28;;;17.85;;
69894;SDS011;57172;52.034;5.090;2023-09-12T10:27:18;32.73;;;17.43;;
69894;SDS011;57172;52.034;5.090;2023-09-12T10:29:46;28.83;;;17.35;;
69894;SDS011;57172;52.034;5.090;2023-09-12T10:32:16;30.75;;;17.08;;
69894;SDS011;57172;52.034;5.090;2023-09-12T10:34:44;28.00;;;16.30;;
69894;SDS011;57172;52.034;5.090;2023-09-12T10:37:15;28.10;;;15.68;;
69894;SDS011;57172;52.034;5.090;2023-09-12T10:39:43;27.27;;;15.80;;
69894;SDS011;57172;52.034;5.090;2023-09-12T10:42:10;28.45;;;16.40;;
69894;SDS011;57172;52.034;5.090;2023-09-12T10:44:39;27.27;;;16.52;;
69894;SDS011;57172;52.034;5.090;2023-09-12T10:47:06;26.08;;;16.02;;
69894;SDS011;57172;52.034;5.090;2023-09-12T10:49:33;25.92;;;16.23;;
69894;SDS011;57172;52.034;5.090;2023-09-12T10:52:00;24.70;;;15.97;;
69894;SDS011;57172;52.034;5.090;2023-09-12T10:57:06;27.83;;;16.23;;
69894;SDS011;57172;52.034;5.090;2023-09-12T10:59:35;23.98;;;16.08;;
69894;SDS011;57172;52.034;5.090;2023-09-12T11:02:48;22.02;;;14.38;;
69894;SDS011;57172;52.034;5.090;2023-09-12T11:04:56;19.47;;;13.67;;
69894;SDS011;57172;52.034;5.090;2023-09-12T11:07:31;22.77;;;13.80;;
69894;SDS011;57172;52.034;5.090;2023-09-12T11:12:42;21.23;;;13.88;;
69894;SDS011;57172;52.034;5.090;2023-09-12T11:15:10;23.40;;;14.40;;
69894;SDS011;57172;52.034;5.090;2023-09-12T11:17:37;20.57;;;14.27;;
69894;SDS011;57172;52.034;5.090;2023-09-12T11:20:06;19.85;;;13.73;;
69894;SDS011;57172;52.034;5.090;2023-09-12T11:22:41;19.80;;;13.35;;
69894;SDS011;57172;52.034;5.090;2023-09-12T11:25:22;20.50;;;13.38;;
69894;SDS011;57172;52.034;5.090;2023-09-12T11:30:20;19.67;;;13.20;;
69894;SDS011;57172;52.034;5.090;2023-09-12T11:32:49;20.02;;;13.73;;
69894;SDS011;57172;52.034;5.090;2023-09-12T11:35:27;18.17;;;12.10;;
69894;SDS011;57172;52.034;5.090;2023-09-12T11:37:59;19.20;;;13.07;;
69894;SDS011;57172;52.034;5.090;2023-09-12T11:43:00;18.87;;;12.73;;
69894;SDS011;57172;52.034;5.090;2023-09-12T11:45:28;21.05;;;13.27;;
69894;SDS011;57172;52.034;5.090;2023-09-12T11:47:56;19.48;;;13.02;;
69894;SDS011;57172;52.034;5.090;2023-09-12T11:50:33;21.02;;;14.07;;
69894;SDS011;57172;52.034;5.090;2023-09-12T11:55:32;21.60;;;13.87;;
69894;SDS011;57172;52.034;5.090;2023-09-12T11:58:10;22.73;;;14.38;;
69894;SDS011;57172;52.034;5.090;2023-09-12T12:00:42;19.35;;;13.18;;
69894;SDS011;57172;52.034;5.090;2023-09-12T12:03:17;20.75;;;13.30;;
69894;SDS011;57172;52.034;5.090;2023-09-12T12:05:48;17.02;;;11.23;;
69894;SDS011;57172;52.034;5.090;2023-09-12T12:08:17;18.80;;;12.07;;
69894;SDS011;57172;52.034;5.090;2023-09-12T12:10:50;22.52;;;12.27;;
69894;SDS011;57172;52.034;5.090;2023-09-12T12:13:18;19.10;;;12.40;;
69894;SDS011;57172;52.034;5.090;2023-09-12T12:15:46;17.65;;;11.43;;
69894;SDS011;57172;52.034;5.090;2023-09-12T12:18:13;15.27;;;10.13;;
69894;SDS011;57172;52.034;5.090;2023-09-12T12:20:41;18.03;;;10.57;;
69894;SDS011;57172;52.034;5.090;2023-09-12T12:23:08;16.30;;;11.23;;
69894;SDS011;57172;52.034;5.090;2023-09-12T12:25:38;17.98;;;12.25;;
69894;SDS011;57172;52.034;5.090;2023-09-12T12:28:06;17.15;;;11.82;;
69894;SDS011;57172;52.034;5.090;2023-09-12T12:30:33;19.63;;;12.43;;
69894;SDS011;57172;52.034;5.090;2023-09-12T12:33:02;18.97;;;13.27;;
69894;SDS011;57172;52.034;5.090;2023-09-12T12:36:02;21.13;;;13.35;;
69894;SDS011;57172;52.034;5.090;2023-09-12T12:38:33;20.13;;;13.27;;
69894;SDS011;57172;52.034;5.090;2023-09-12T12:41:04;18.45;;;12.25;;
69894;SDS011;57172;52.034;5.090;2023-09-12T12:43:31;20.13;;;12.27;;
69894;SDS011;57172;52.034;5.090;2023-09-12T12:45:58;19.33;;;12.43;;
69894;SDS011;57172;52.034;5.090;2023-09-12T12:48:31;18.40;;;12.90;;
69894;SDS011;57172;52.034;5.090;2023-09-12T12:51:01;19.15;;;12.60;;
69894;SDS011;57172;52.034;5.090;2023-09-12T12:53:44;23.38;;;15.55;;
69894;SDS011;57172;52.034;5.090;2023-09-12T12:56:22;24.33;;;14.32;;
69894;SDS011;57172;52.034;5.090;2023-09-12T12:58:56;30.33;;;15.40;;
69894;SDS011;57172;52.034;5.090;2023-09-12T13:01:25;27.23;;;14.82;;
69894;SDS011;57172;52.034;5.090;2023-09-12T13:03:52;25.90;;;15.48;;
69894;SDS011;57172;52.034;5.090;2023-09-12T13:06:21;22.15;;;13.23;;
69894;SDS011;57172;52.034;5.090;2023-09-12T13:08:49;21.50;;;13.23;;
69894;SDS011;57172;52.034;5.090;2023-09-12T13:11:16;20.07;;;11.57;;
69894;SDS011;57172;52.034;5.090;2023-09-12T13:13:45;18.35;;;11.52;;
69894;SDS011;57172;52.034;5.090;2023-09-12T13:16:15;17.92;;;11.18;;
69894;SDS011;57172;52.034;5.090;2023-09-12T13:18:43;18.90;;;10.95;;
69894;SDS011;57172;52.034;5.090;2023-09-12T13:21:10;18.50;;;11.00;;
69894;SDS011;57172;52.034;5.090;2023-09-12T13:23:37;17.30;;;11.03;;
69894;SDS011;57172;52.034;5.090;2023-09-12T13:26:06;19.50;;;11.55;;
69894;SDS011;57172;52.034;5.090;2023-09-12T13:28:34;19.23;;;11.57;;
69894;SDS011;57172;52.034;5.090;2023-09-12T13:31:03;19.23;;;11.38;;
69894;SDS011;57172;52.034;5.090;2023-09-12T13:33:30;20.42;;;13.02;;
69894;SDS011;57172;52.034;5.090;2023-09-12T13:35:58;20.10;;;11.90;;
69894;SDS011;57172;52.034;5.090;2023-09-12T13:38:25;20.25;;;12.45;;
69894;SDS011;57172;52.034;5.090;2023-09-12T13:40:51;17.70;;;11.65;;
69894;SDS011;57172;52.034;5.090;2023-09-12T13:43:18;15.45;;;9.85;;
69894;SDS011;57172;52.034;5.090;2023-09-12T13:45:46;16.40;;;9.63;;
69894;SDS011;57172;52.034;5.090;2023-09-12T13:48:13;18.60;;;11.03;;
69894;SDS011;57172;52.034;5.090;2023-09-12T13:50:41;17.55;;;10.60;;
69894;SDS011;57172;52.034;5.090;2023-09-12T13:53:09;19.33;;;13.07;;
69894;SDS011;57172;52.034;5.090;2023-09-12T13:55:37;17.95;;;12.00;;
69894;SDS011;57172;52.034;5.090;2023-09-12T13:58:14;15.60;;;11.02;;
69894;SDS011;57172;52.034;5.090;2023-09-12T14:00:41;15.30;;;10.93;;
69894;SDS011;57172;52.034;5.090;2023-09-12T14:03:08;16.02;;;11.00;;
69894;SDS011;57172;52.034;5.090;2023-09-12T14:05:35;17.85;;;11.45;;
69894;SDS011;57172;52.034;5.090;2023-09-12T14:08:03;18.15;;;11.77;;
69894;SDS011;57172;52.034;5.090;2023-09-12T14:10:30;19.83;;;12.43;;
69894;SDS011;57172;52.034;5.090;2023-09-12T14:13:03;18.70;;;11.67;;
69894;SDS011;57172;52.034;5.090;2023-09-12T14:15:33;21.60;;;13.48;;
69894;SDS011;57172;52.034;5.090;2023-09-12T14:18:01;18.42;;;11.68;;
69894;SDS011;57172;52.034;5.090;2023-09-12T14:20:28;16.88;;;11.55;;
69894;SDS011;57172;52.034;5.090;2023-09-12T14:22:56;16.38;;;10.05;;
69894;SDS011;57172;52.034;5.090;2023-09-12T14:25:24;15.93;;;11.03;;
69894;SDS011;57172;52.034;5.090;2023-09-12T14:27:53;15.95;;;10.00;;
69894;SDS011;57172;52.034;5.090;2023-09-12T14:30:20;16.83;;;10.75;;
69894;SDS011;57172;52.034;5.090;2023-09-12T14:32:49;18.73;;;12.13;;
69894;SDS011;57172;52.034;5.090;2023-09-12T14:35:16;16.30;;;11.63;;
69894;SDS011;57172;52.034;5.090;2023-09-12T14:37:43;15.13;;;9.50;;
69894;SDS011;57172;52.034;5.090;2023-09-12T14:40:10;17.52;;;11.63;;
69894;SDS011;57172;52.034;5.090;2023-09-12T14:42:40;13.50;;;9.27;;
69894;SDS011;57172;52.034;5.090;2023-09-12T14:45:07;15.00;;;9.65;;
69894;SDS011;57172;52.034;5.090;2023-09-12T14:47:36;13.65;;;9.02;;
69894;SDS011;57172;52.034;5.090;2023-09-12T14:50:03;15.53;;;9.20;;
69894;SDS011;57172;52.034;5.090;2023-09-12T14:52:30;18.67;;;9.85;;